Time;durP1;ratioP1;P1;durP2;ratioP2;P2;SDS_P1;SDS_P2;PMS_P1;PMS_P2;Temp;Humidity;BMP_temperature;BMP_pressure;BME280_temperature;BME280_humidity;BME280_pressure;Samples;Min_cycle;Max_cycle;Signal;HPM_P1;HPM_P2
2023/07/20 00:00:12;;;;;;;3.93;2.87;;;18.70;99.90;;;;;;5114750;27;20209;-75
2023/07/20 00:02:39;;;;;;;3.07;2.87;;;18.60;99.90;;;;;;5123914;27;20731;-75
2023/07/20 00:05:07;;;;;;;3.90;2.63;;;18.30;99.90;;;;;;5106016;28;20220;-75
2023/07/20 00:07:34;;;;;;;3.20;2.80;;;18.50;99.90;;;;;;5105797;28;20570;-76
2023/07/20 00:10:00;;;;;;;2.83;2.63;;;18.50;99.90;;;;;;5105976;28;20289;-74
2023/07/20 00:12:29;;;;;;;2.83;2.63;;;18.60;99.90;;;;;;5106101;28;20218;-75
2023/07/20 00:14:55;;;;;;;3.90;3.20;;;18.60;99.90;;;;;;5108550;27;20206;-75
2023/07/20 00:17:22;;;;;;;3.60;2.80;;;18.60;99.90;;;;;;5125931;27;20303;-78
2023/07/20 00:19:49;;;;;;;2.80;2.60;;;18.40;99.90;;;;;;5126345;27;20628;-77
2023/07/20 00:22:16;;;;;;;3.60;3.03;;;18.30;99.90;;;;;;5126402;27;20201;-77
2023/07/20 00:24:43;;;;;;;3.60;3.30;;;18.20;99.90;;;;;;5121058;27;20250;-79
2023/07/20 00:27:10;;;;;;;5.20;3.10;;;18.10;99.90;;;;;;5104893;28;20216;-78
2023/07/20 00:29:38;;;;;;;3.67;3.37;;;18.20;99.90;;;;;;5104908;28;20241;-79
2023/07/20 00:32:06;;;;;;;2.90;2.70;;;18.20;99.90;;;;;;5111619;27;20714;-78
2023/07/20 00:34:33;;;;;;;4.77;3.03;;;18.20;99.90;;;;;;5105590;28;20861;-78
2023/07/20 00:37:00;;;;;;;3.03;2.93;;;18.20;99.90;;;;;;5105647;28;20245;-78
2023/07/20 00:39:27;;;;;;;3.57;3.17;;;18.10;99.90;;;;;;5105113;28;20290;-75
2023/07/20 00:41:54;;;;;;;4.10;2.80;;;18.30;99.90;;;;;;5104807;28;20227;-77
2023/07/20 00:44:20;;;;;;;3.20;2.87;;;18.30;99.90;;;;;;5105286;28;20221;-77
2023/07/20 00:46:49;;;;;;;4.37;3.13;;;18.40;99.90;;;;;;5105276;28;20691;-77
2023/07/20 00:49:16;;;;;;;3.23;2.90;;;18.40;99.90;;;;;;5105260;28;20376;-77
2023/07/20 00:51:44;;;;;;;3.60;3.30;;;18.40;99.90;;;;;;5118429;27;20205;-76
2023/07/20 00:54:11;;;;;;;3.23;3.03;;;18.50;99.90;;;;;;5125818;28;20216;-77
2023/07/20 00:56:38;;;;;;;4.10;2.97;;;18.50;99.90;;;;;;5125189;28;20227;-77
2023/07/20 00:59:05;;;;;;;3.40;3.20;;;18.20;99.90;;;;;;5131065;27;21072;-77
2023/07/20 01:01:32;;;;;;;3.40;3.20;;;18.40;99.90;;;;;;5125663;28;20328;-74
2023/07/20 01:04:00;;;;;;;3.57;3.20;;;18.30;99.90;;;;;;5125453;28;20308;-77
2023/07/20 01:06:37;;;;;;;3.90;3.60;;;18.40;99.90;;;;;;5125877;28;20284;-78
2023/07/20 01:09:14;;;;;;;3.73;3.10;;;18.40;99.90;;;;;;5125285;28;20283;-77
2023/07/20 01:11:55;;;;;;;3.40;3.20;;;18.50;99.90;;;;;;5125533;28;20288;-77
2023/07/20 01:14:25;;;;;;;3.93;3.47;;;18.40;99.90;;;;;;5125431;28;20205;-77
2023/07/20 01:16:52;;;;;;;3.73;3.37;;;18.40;99.90;;;;;;5124958;28;20282;-74
2023/07/20 01:19:20;;;;;;;4.53;4.20;;;18.40;99.90;;;;;;5116108;28;20206;-74
2023/07/20 01:21:54;;;;;;;3.57;3.33;;;18.40;99.90;;;;;;5104615;28;20229;-74
2023/07/20 01:24:51;;;;;;;4.03;3.60;;;18.30;99.90;;;;;;5104468;28;20193;-75
2023/07/20 01:28:04;;;;;;;4.60;4.03;;;18.20;99.90;;;;;;5112749;28;20221;-75
2023/07/20 01:30:48;;;;;;;4.93;3.83;;;18.10;99.90;;;;;;5125452;28;20285;-75
2023/07/20 01:33:17;;;;;;;3.77;3.57;;;18.20;99.90;;;;;;5125518;28;20301;-75
2023/07/20 01:35:47;;;;;;;4.10;3.70;;;18.20;99.90;;;;;;5116660;28;20226;-75
2023/07/20 01:38:15;;;;;;;4.43;3.97;;;18.20;99.90;;;;;;5105103;28;20317;-75
2023/07/20 01:40:42;;;;;;;4.17;3.77;;;18.20;99.90;;;;;;5105054;28;20260;-75
2023/07/20 01:43:09;;;;;;;4.07;3.83;;;18.10;99.90;;;;;;5104484;28;20297;-75
2023/07/20 01:45:36;;;;;;;5.60;4.03;;;17.90;99.90;;;;;;5106747;28;20233;-75
2023/07/20 01:48:03;;;;;;;4.37;3.77;;;17.80;99.90;;;;;;5112169;27;20212;-75
2023/07/20 01:50:32;;;;;;;4.23;3.90;;;17.70;99.90;;;;;;5113259;27;20265;-75
2023/07/20 01:52:59;;;;;;;4.13;3.70;;;17.50;99.90;;;;;;5108285;28;20206;-75
2023/07/20 01:55:26;;;;;;;3.80;3.60;;;17.50;99.90;;;;;;5119658;27;20797;-76
2023/07/20 01:57:53;;;;;;;4.73;4.17;;;17.50;99.90;;;;;;5128849;27;20849;-77
2023/07/20 02:00:23;;;;;;;4.50;4.10;;;17.40;99.90;;;;;;5128866;27;20320;-77
2023/07/20 02:02:50;;;;;;;4.80;4.40;;;17.50;99.90;;;;;;5128922;27;20561;-77
2023/07/20 02:05:17;;;;;;;4.63;3.90;;;17.40;99.90;;;;;;5128995;27;20213;-77
2023/07/20 02:07:45;;;;;;;4.03;3.73;;;17.40;99.90;;;;;;5128673;27;21249;-77
2023/07/20 02:10:12;;;;;;;4.20;3.87;;;17.50;99.90;;;;;;5129009;27;20274;-77
2023/07/20 02:12:39;;;;;;;3.70;3.40;;;17.50;99.90;;;;;;5128492;27;20292;-77
2023/07/20 02:15:06;;;;;;;4.10;3.80;;;17.60;99.90;;;;;;5128509;27;20296;-77
2023/07/20 02:17:33;;;;;;;4.13;3.83;;;17.60;99.90;;;;;;5128504;27;20229;-77
2023/07/20 02:20:00;;;;;;;4.47;4.07;;;17.70;99.90;;;;;;5128399;27;20304;-75
2023/07/20 02:22:27;;;;;;;5.20;4.10;;;17.50;99.90;;;;;;5128518;27;20304;-75
2023/07/20 02:24:55;;;;;;;4.00;3.70;;;17.50;99.90;;;;;;5127242;27;20827;-76
2023/07/20 02:27:22;;;;;;;4.53;4.10;;;17.60;99.90;;;;;;5128369;27;20221;-75
2023/07/20 02:29:50;;;;;;;4.33;3.93;;;17.60;99.90;;;;;;5128148;27;20237;-75
2023/07/20 02:32:17;;;;;;;4.03;3.83;;;17.70;99.90;;;;;;5128114;27;20213;-75
2023/07/20 02:34:44;;;;;;;4.73;3.80;;;17.80;99.90;;;;;;5127948;27;20300;-76
2023/07/20 02:37:12;;;;;;;4.20;4.00;;;17.70;99.90;;;;;;5127854;27;20589;-76
2023/07/20 02:39:39;;;;;;;6.53;4.77;;;17.60;99.90;;;;;;5127816;27;20197;-76
2023/07/20 02:42:08;;;;;;;4.50;4.10;;;17.40;99.90;;;;;;5127787;27;20206;-75
2023/07/20 02:44:35;;;;;;;4.73;4.33;;;17.30;99.90;;;;;;5111378;27;20206;-76
2023/07/20 02:47:02;;;;;;;5.17;4.83;;;17.40;99.90;;;;;;5107707;28;20328;-75
2023/07/20 02:49:29;;;;;;;5.03;4.50;;;17.30;99.90;;;;;;5114558;27;20298;-75
2023/07/20 02:51:55;;;;;;;5.63;5.13;;;17.20;99.90;;;;;;5126716;27;20224;-76
2023/07/20 02:54:23;;;;;;;5.43;5.07;;;17.20;99.90;;;;;;5127500;27;20245;-75
2023/07/20 02:56:49;;;;;;;6.50;5.90;;;17.20;99.90;;;;;;5126766;27;20727;-76
2023/07/20 02:59:18;;;;;;;6.97;6.13;;;17.30;99.90;;;;;;5127327;27;20656;-76
2023/07/20 03:01:45;;;;;;;6.07;5.60;;;17.00;99.90;;;;;;5127266;27;20221;-75
2023/07/20 03:04:12;;;;;;;7.17;6.60;;;16.90;99.90;;;;;;5127496;27;20300;-75
2023/07/20 03:06:39;;;;;;;7.20;6.60;;;17.00;99.90;;;;;;5127245;27;20296;-75
2023/07/20 03:09:06;;;;;;;7.50;6.80;;;17.10;99.90;;;;;;5126966;27;20206;-76
2023/07/20 03:11:33;;;;;;;7.47;6.73;;;17.00;99.90;;;;;;5127035;27;20775;-75
2023/07/20 03:14:01;;;;;;;10.20;7.50;;;17.10;99.90;;;;;;5127159;27;20236;-75
2023/07/20 03:16:32;;;;;;;7.63;7.03;;;17.20;99.90;;;;;;5126996;27;20318;-75
2023/07/20 03:18:59;;;;;;;7.77;7.17;;;17.30;99.90;;;;;;5124545;27;20229;-75
2023/07/20 03:21:26;;;;;;;8.30;7.63;;;17.30;99.90;;;;;;5106917;28;20213;-75
2023/07/20 03:23:53;;;;;;;7.87;7.30;;;17.40;99.90;;;;;;5106654;28;20297;-75
2023/07/20 03:26:20;;;;;;;8.27;7.57;;;17.40;99.90;;;;;;5126325;27;20213;-74
2023/07/20 03:28:47;;;;;;;7.40;6.90;;;17.40;99.90;;;;;;5126515;27;20305;-74
2023/07/20 03:31:15;;;;;;;7.87;7.27;;;17.30;99.90;;;;;;5126998;27;20304;-74
2023/07/20 03:33:43;;;;;;;7.87;7.10;;;17.40;99.90;;;;;;5119615;27;20195;-76
2023/07/20 03:36:10;;;;;;;8.03;7.43;;;17.40;99.90;;;;;;5116739;27;20228;-76
2023/07/20 03:38:37;;;;;;;7.87;7.17;;;17.40;99.90;;;;;;5126808;27;20209;-75
2023/07/20 03:41:04;;;;;;;8.27;7.43;;;17.50;99.90;;;;;;5110154;27;20212;-75
2023/07/20 03:43:31;;;;;;;7.30;6.80;;;17.40;99.90;;;;;;5106035;28;20206;-75
2023/07/20 03:45:58;;;;;;;7.67;6.97;;;17.40;99.90;;;;;;5106095;28;20206;-75
2023/07/20 03:48:25;;;;;;;7.60;7.07;;;17.50;99.90;;;;;;5121802;27;20201;-75
2023/07/20 03:50:54;;;;;;;8.33;7.27;;;17.60;99.90;;;;;;5118793;27;20652;-75
2023/07/20 03:53:21;;;;;;;8.37;7.50;;;17.60;99.90;;;;;;5106258;28;20297;-75
2023/07/20 03:55:49;;;;;;;8.40;7.63;;;17.50;99.90;;;;;;5105980;28;20704;-75
2023/07/20 03:58:17;;;;;;;7.60;6.87;;;17.50;99.90;;;;;;5105906;28;20363;-75
2023/07/20 04:00:46;;;;;;;7.20;6.50;;;17.60;99.90;;;;;;5106238;28;20654;-75
2023/07/20 04:03:13;;;;;;;7.53;6.93;;;17.70;99.90;;;;;;5106339;28;20213;-75
2023/07/20 04:05:40;;;;;;;8.00;7.23;;;17.70;99.90;;;;;;5106245;28;20210;-75
2023/07/20 04:08:08;;;;;;;7.73;7.13;;;17.80;99.90;;;;;;5119320;27;20211;-75
2023/07/20 04:10:36;;;;;;;10.20;7.17;;;17.80;99.90;;;;;;5126873;27;20671;-74
2023/07/20 04:13:03;;;;;;;7.60;7.00;;;17.60;99.90;;;;;;5126212;27;20288;-77
2023/07/20 04:15:29;;;;;;;8.57;7.50;;;17.50;99.90;;;;;;5126081;27;20284;-76
2023/07/20 04:17:57;;;;;;;7.27;6.77;;;17.60;99.90;;;;;;5126055;27;20279;-76
2023/07/20 04:20:24;;;;;;;8.00;7.40;;;17.50;99.90;;;;;;5125762;27;20659;-76
2023/07/20 04:22:51;;;;;;;7.87;7.23;;;17.40;99.90;;;;;;5114998;27;20216;-77
2023/07/20 04:25:19;;;;;;;7.17;6.67;;;17.40;99.90;;;;;;5106241;28;20600;-77
2023/07/20 04:27:46;;;;;;;8.10;7.40;;;17.40;99.90;;;;;;5105431;28;20573;-75
2023/07/20 04:30:15;;;;;;;7.93;7.23;;;17.40;99.90;;;;;;5107536;27;20206;-75
2023/07/20 04:32:44;;;;;;;7.30;6.80;;;17.50;99.90;;;;;;5106710;28;20218;-75
2023/07/20 04:35:11;;;;;;;9.57;7.20;;;17.60;99.90;;;;;;5107696;27;20271;-74
2023/07/20 04:37:37;;;;;;;6.50;6.00;;;17.60;99.90;;;;;;5113775;27;20320;-75
2023/07/20 04:40:06;;;;;;;7.03;6.63;;;17.50;99.90;;;;;;5126526;27;20952;-75
2023/07/20 04:42:34;;;;;;;7.97;6.40;;;17.60;99.90;;;;;;5126438;27;20756;-75
2023/07/20 04:45:01;;;;;;;7.10;6.50;;;17.60;99.90;;;;;;5125009;27;20309;-76
2023/07/20 04:47:27;;;;;;;6.93;6.27;;;17.60;99.90;;;;;;5105964;28;20277;-75
2023/07/20 04:49:54;;;;;;;6.43;6.03;;;17.60;99.90;;;;;;5120180;27;20216;-76
2023/07/20 04:52:21;;;;;;;6.17;5.70;;;17.70;99.90;;;;;;5122072;28;20280;-75
2023/07/20 04:54:48;;;;;;;7.03;6.43;;;17.70;99.90;;;;;;5126485;28;20206;-75
2023/07/20 04:57:15;;;;;;;7.33;6.57;;;17.80;99.90;;;;;;5126201;28;20239;-75
2023/07/20 04:59:43;;;;;;;7.17;6.47;;;17.70;99.90;;;;;;5125323;28;20625;-75
2023/07/20 05:02:10;;;;;;;6.60;6.00;;;17.60;99.90;;;;;;5111715;28;20208;-75
2023/07/20 05:04:37;;;;;;;6.90;5.87;;;17.60;99.90;;;;;;5105489;28;20212;-75
2023/07/20 05:07:04;;;;;;;6.27;5.87;;;17.60;99.90;;;;;;5105410;28;20201;-75
2023/07/20 05:09:31;;;;;;;6.50;5.97;;;17.60;99.90;;;;;;5105222;28;20202;-76
2023/07/20 05:11:58;;;;;;;6.57;5.93;;;17.60;99.90;;;;;;5122132;28;21054;-75
2023/07/20 05:14:25;;;;;;;6.30;5.80;;;17.60;99.90;;;;;;5126016;28;20312;-76
2023/07/20 05:16:53;;;;;;;6.60;6.03;;;17.60;99.90;;;;;;5125268;28;20229;-72
2023/07/20 05:19:20;;;;;;;6.53;5.87;;;17.50;99.90;;;;;;5123274;27;20216;-75
2023/07/20 05:21:47;;;;;;;5.77;5.27;;;17.60;99.90;;;;;;5129947;27;20304;-75
2023/07/20 05:24:13;;;;;;;6.27;5.80;;;17.70;99.90;;;;;;5130076;27;20202;-75
2023/07/20 05:26:40;;;;;;;6.23;5.63;;;17.60;99.90;;;;;;5130237;27;20208;-75
2023/07/20 05:29:07;;;;;;;7.30;6.60;;;17.60;99.90;;;;;;5129819;27;20720;-75
2023/07/20 05:31:34;;;;;;;6.73;5.80;;;17.50;99.90;;;;;;5118423;27;20606;-75
2023/07/20 05:34:02;;;;;;;7.50;6.57;;;17.70;99.90;;;;;;5109321;27;20734;-75
2023/07/20 05:36:30;;;;;;;8.20;6.70;;;17.50;99.90;;;;;;5108967;28;20324;-75
2023/07/20 05:38:57;;;;;;;6.87;6.20;;;17.70;99.90;;;;;;5108896;28;20206;-75
2023/07/20 05:41:24;;;;;;;6.37;5.77;;;17.80;99.90;;;;;;5121524;27;20750;-75
2023/07/20 05:43:51;;;;;;;7.20;6.60;;;17.80;99.90;;;;;;5121444;27;20202;-75
2023/07/20 05:46:18;;;;;;;6.20;5.67;;;17.90;99.90;;;;;;5108599;28;20316;-73
2023/07/20 05:48:45;;;;;;;6.87;6.27;;;18.00;99.90;;;;;;5108610;28;20581;-73
2023/07/20 05:51:13;;;;;;;7.60;6.73;;;18.00;99.90;;;;;;5118259;27;20615;-73
2023/07/20 05:53:40;;;;;;;7.53;6.83;;;18.00;99.90;;;;;;5128985;27;20699;-73
2023/07/20 05:56:09;;;;;;;7.07;6.47;;;18.10;99.90;;;;;;5128888;27;20731;-73
2023/07/20 05:58:36;;;;;;;7.47;6.63;;;17.90;99.90;;;;;;5127950;27;20245;-73
2023/07/20 06:01:06;;;;;;;7.37;6.77;;;17.60;99.90;;;;;;5128682;27;20798;-74
2023/07/20 06:03:34;;;;;;;6.70;6.10;;;17.50;99.90;;;;;;5129056;27;20212;-73
2023/07/20 06:06:01;;;;;;;6.53;6.03;;;17.60;99.90;;;;;;5128542;27;20234;-73
2023/07/20 06:08:30;;;;;;;6.27;5.67;;;17.50;99.90;;;;;;5128839;27;20206;-74
2023/07/20 06:10:56;;;;;;;6.87;6.10;;;17.20;99.90;;;;;;5125532;27;20313;-74
2023/07/20 06:13:23;;;;;;;6.63;6.23;;;17.20;99.90;;;;;;5108154;28;20333;-76
2023/07/20 06:15:50;;;;;;;6.77;6.20;;;17.20;99.90;;;;;;5107728;28;20217;-76
2023/07/20 06:18:17;;;;;;;6.37;5.10;;;17.40;99.90;;;;;;5108746;28;20684;-76
2023/07/20 06:20:49;;;;;;;6.03;5.53;;;17.60;99.90;;;;;;5108083;28;20665;-76
2023/07/20 06:23:15;;;;;;;5.73;5.10;;;17.40;99.90;;;;;;5108488;28;20198;-75
2023/07/20 06:25:44;;;;;;;4.40;4.10;;;17.50;99.90;;;;;;5108177;28;20299;-74
2023/07/20 06:28:11;;;;;;;4.53;3.80;;;17.40;99.90;;;;;;5107781;28;20217;-73
2023/07/20 06:30:38;;;;;;;5.37;3.67;;;17.50;99.90;;;;;;5107929;27;20206;-73
2023/07/20 06:33:04;;;;;;;3.83;3.63;;;17.70;99.90;;;;;;5107751;28;20297;-77
2023/07/20 06:35:31;;;;;;;3.70;3.40;;;17.70;99.90;;;;;;5107711;28;20220;-77
2023/07/20 06:38:00;;;;;;;3.80;3.50;;;17.70;99.90;;;;;;5122669;27;20984;-77
2023/07/20 06:40:27;;;;;;;4.33;3.93;;;17.60;99.90;;;;;;5128215;27;20206;-77
2023/07/20 06:42:55;;;;;;;3.80;3.50;;;17.60;99.90;;;;;;5127921;27;20289;-77
2023/07/20 06:45:22;;;;;;;3.77;3.07;;;17.70;99.90;;;;;;5127726;27;20221;-77
2023/07/20 06:47:48;;;;;;;2.93;2.73;;;17.60;99.90;;;;;;5128425;27;20671;-77
2023/07/20 06:50:16;;;;;;;3.20;2.73;;;17.40;99.90;;;;;;5124735;27;20205;-77
2023/07/20 06:52:42;;;;;;;3.40;3.10;;;17.40;99.90;;;;;;5108816;27;20202;-77
2023/07/20 06:55:10;;;;;;;4.17;2.93;;;17.30;99.90;;;;;;5107714;28;20301;-77
2023/07/20 06:57:37;;;;;;;3.73;2.90;;;17.40;99.90;;;;;;5107130;28;20710;-77
2023/07/20 07:00:06;;;;;;;3.73;2.20;;;17.40;99.90;;;;;;5106981;28;20818;-77
2023/07/20 07:02:34;;;;;;;3.07;2.30;;;17.30;99.90;;;;;;5107975;27;20202;-75
2023/07/20 07:05:01;;;;;;;2.60;2.40;;;17.30;99.90;;;;;;5118091;27;20301;-75
2023/07/20 07:07:28;;;;;;;1.60;1.50;;;17.50;99.90;;;;;;5119842;27;20842;-75
2023/07/20 07:09:55;;;;;;;1.90;1.80;;;17.50;99.90;;;;;;5113697;27;20885;-73
2023/07/20 07:12:22;;;;;;;1.70;1.60;;;17.60;99.90;;;;;;5126720;27;20642;-74
2023/07/20 07:14:48;;;;;;;2.53;1.80;;;17.70;99.90;;;;;;5126814;27;20247;-75
2023/07/20 07:17:16;;;;;;;2.23;2.10;;;17.70;99.90;;;;;;5126874;27;20826;-75
2023/07/20 07:19:44;;;;;;;2.70;2.00;;;17.80;99.90;;;;;;5124225;27;20656;-72
2023/07/20 07:22:11;;;;;;;2.10;1.87;;;18.00;99.90;;;;;;5126401;27;20210;-73
2023/07/20 07:24:40;;;;;;;1.53;1.50;;;18.00;99.90;;;;;;5115587;27;20659;-72
2023/07/20 07:27:07;;;;;;;1.63;1.53;;;18.00;99.90;;;;;;5106467;27;20234;-74
2023/07/20 07:29:34;;;;;;;1.40;1.30;;;18.00;99.90;;;;;;5113060;27;20204;-72
2023/07/20 07:32:01;;;;;;;1.20;1.10;;;18.10;99.90;;;;;;5116319;27;20313;-77
2023/07/20 07:34:29;;;;;;;1.53;1.20;;;18.20;99.90;;;;;;5106384;28;20903;-77
2023/07/20 07:36:56;;;;;;;2.00;0.97;;;18.20;99.90;;;;;;5106389;28;20987;-77
2023/07/20 07:39:24;;;;;;;1.23;1.00;;;18.30;99.90;;;;;;5106090;28;20240;-79
2023/07/20 07:41:51;;;;;;;1.10;1.10;;;18.40;99.90;;;;;;5106140;28;20321;-76
2023/07/20 07:44:19;;;;;;;1.83;0.87;;;18.50;99.90;;;;;;5116400;27;20270;-77
2023/07/20 07:46:45;;;;;;;1.13;0.87;;;18.60;99.90;;;;;;5117022;27;20198;-78
2023/07/20 07:49:13;;;;;;;0.83;0.83;;;18.50;99.90;;;;;;5115258;27;21127;-78
2023/07/20 07:51:41;;;;;;;0.47;0.47;;;18.40;99.90;;;;;;5111424;27;20202;-78
2023/07/20 07:54:08;;;;;;;1.10;1.10;;;18.50;99.90;;;;;;5104726;28;20632;-77
2023/07/20 07:56:35;;;;;;;0.97;0.90;;;18.50;99.90;;;;;;5104641;28;20329;-77
2023/07/20 07:59:02;;;;;;;1.73;1.03;;;18.60;99.90;;;;;;5103915;28;20252;-76
2023/07/20 08:01:29;;;;;;;1.00;1.00;;;18.60;99.90;;;;;;5104380;28;20286;-77
2023/07/20 08:03:57;;;;;;;1.10;1.00;;;18.60;99.90;;;;;;5104220;28;20206;-77
2023/07/20 08:06:24;;;;;;;0.70;0.70;;;18.70;99.90;;;;;;5111024;27;20680;-77
2023/07/20 08:08:52;;;;;;;0.80;0.80;;;18.70;99.90;;;;;;5112601;27;20206;-77
2023/07/20 08:11:19;;;;;;;1.10;0.97;;;18.70;99.90;;;;;;5112273;27;20202;-76
2023/07/20 08:13:46;;;;;;;0.70;0.70;;;18.70;99.90;;;;;;5104270;28;20206;-77
2023/07/20 08:16:13;;;;;;;1.60;0.70;;;18.60;99.90;;;;;;5104142;28;20221;-76
2023/07/20 08:18:40;;;;;;;1.17;0.80;;;18.60;99.90;;;;;;5107800;27;20287;-77
2023/07/20 08:21:07;;;;;;;1.67;0.90;;;18.60;99.90;;;;;;5120519;27;20213;-77
2023/07/20 08:23:34;;;;;;;2.27;0.87;;;18.60;99.90;;;;;;5105734;28;20202;-78
2023/07/20 08:26:03;;;;;;;0.57;0.57;;;18.70;99.90;;;;;;5103620;28;20567;-77
2023/07/20 08:28:29;;;;;;;1.50;0.70;;;18.70;99.90;;;;;;5123504;27;20198;-77
2023/07/20 08:30:56;;;;;;;1.20;0.60;;;18.70;99.90;;;;;;5124479;27;20308;-77
2023/07/20 08:33:24;;;;;;;0.80;0.80;;;18.60;99.90;;;;;;5122900;27;20201;-78
2023/07/20 08:35:50;;;;;;;1.10;1.00;;;18.80;99.90;;;;;;5124648;27;20589;-77
2023/07/20 08:38:17;;;;;;;0.83;0.83;;;18.80;99.90;;;;;;5124970;27;20221;-76
2023/07/20 08:40:46;;;;;;;0.60;0.60;;;19.00;99.90;;;;;;5113100;27;20677;-77
2023/07/20 08:43:16;;;;;;;2.20;0.63;;;19.10;99.90;;;;;;5124522;27;20571;-76
2023/07/20 08:45:45;;;;;;;1.23;0.57;;;19.10;99.90;;;;;;5124497;27;20929;-76
2023/07/20 08:48:13;;;;;;;1.57;0.73;;;19.00;99.90;;;;;;5124271;28;20236;-76
2023/07/20 08:50:40;;;;;;;1.37;0.40;;;19.10;99.90;;;;;;5109306;28;20201;-77
2023/07/20 08:53:09;;;;;;;0.80;0.60;;;19.20;99.90;;;;;;5124633;28;20304;-77
2023/07/20 08:55:37;;;;;;;1.07;0.70;;;19.30;99.90;;;;;;5126499;27;20727;-77
2023/07/20 08:58:06;;;;;;;1.17;0.47;;;19.30;99.90;;;;;;5128790;27;20241;-77
2023/07/20 09:00:36;;;;;;;0.70;0.57;;;19.30;99.90;;;;;;5124299;27;20221;-74
2023/07/20 09:03:04;;;;;;;1.03;0.50;;;19.10;99.90;;;;;;5114413;27;20229;-77
2023/07/20 09:05:31;;;;;;;0.50;0.50;;;19.30;99.90;;;;;;5108456;28;20213;-77
2023/07/20 09:07:58;;;;;;;1.30;0.77;;;19.30;99.90;;;;;;5108003;27;20582;-76
2023/07/20 09:10:25;;;;;;;0.60;0.60;;;19.20;99.90;;;;;;5108175;27;20225;-76
2023/07/20 09:12:52;;;;;;;0.73;0.70;;;19.30;99.90;;;;;;5108115;28;20736;-77
2023/07/20 09:15:21;;;;;;;1.13;1.03;;;19.50;99.90;;;;;;5108646;28;20241;-77
2023/07/20 09:17:50;;;;;;;1.07;0.53;;;19.60;99.90;;;;;;5119689;27;20296;-77
2023/07/20 09:20:18;;;;;;;0.40;0.40;;;19.50;99.90;;;;;;5111264;27;20629;-77
2023/07/20 09:22:45;;;;;;;0.83;0.73;;;19.40;99.90;;;;;;5108339;28;20206;-77
2023/07/20 09:25:14;;;;;;;1.37;0.73;;;19.30;99.90;;;;;;5112527;27;20236;-77
2023/07/20 09:27:42;;;;;;;0.60;0.60;;;19.30;99.90;;;;;;5117569;27;20563;-77
2023/07/20 09:30:12;;;;;;;1.80;0.60;;;19.30;99.90;;;;;;5112121;27;20207;-76
2023/07/20 09:32:41;;;;;;;0.93;0.60;;;19.10;99.90;;;;;;5122661;27;20243;-76
2023/07/20 09:35:15;;;;;;;1.63;0.70;;;18.90;99.90;;;;;;5127884;27;20213;-78
2023/07/20 09:37:48;;;;;;;1.50;0.70;;;19.00;99.90;;;;;;5120610;27;20574;-77
2023/07/20 09:40:18;;;;;;;0.60;0.60;;;18.90;99.90;;;;;;5128822;27;20292;-77
2023/07/20 09:42:45;;;;;;;0.80;0.80;;;18.90;99.90;;;;;;5121128;27;20205;-77
2023/07/20 09:45:12;;;;;;;1.20;0.90;;;18.80;99.90;;;;;;5107525;28;20580;-77
2023/07/20 09:47:39;;;;;;;1.13;0.93;;;18.70;99.90;;;;;;5107718;28;20206;-78
2023/07/20 09:50:10;;;;;;;0.90;0.90;;;18.70;99.90;;;;;;5125726;27;20214;-76
2023/07/20 09:52:40;;;;;;;0.90;0.83;;;18.60;99.90;;;;;;5114752;27;20190;-77
2023/07/20 09:55:08;;;;;;;0.93;0.93;;;18.60;99.90;;;;;;5110025;27;20288;-76
2023/07/20 09:57:35;;;;;;;0.80;0.80;;;18.70;99.90;;;;;;5107401;28;20297;-76
2023/07/20 10:00:07;;;;;;;1.03;0.80;;;18.60;99.90;;;;;;5107427;28;20245;-77
2023/07/20 10:02:34;;;;;;;1.50;1.00;;;18.60;99.90;;;;;;5115848;27;20250;-77
2023/07/20 10:05:04;;;;;;;1.00;0.80;;;18.60;99.90;;;;;;5127925;27;20210;-77
2023/07/20 10:07:36;;;;;;;1.27;0.70;;;18.70;99.90;;;;;;5127484;27;20220;-76
2023/07/20 10:10:05;;;;;;;1.23;1.00;;;18.70;99.90;;;;;;5127445;27;20657;-77
2023/07/20 10:12:32;;;;;;;0.80;0.80;;;18.60;99.90;;;;;;5127639;27;20210;-77
2023/07/20 10:15:11;;;;;;;1.10;1.10;;;18.60;99.90;;;;;;5110051;27;20202;-79
2023/07/20 10:17:44;;;;;;;1.90;1.03;;;18.60;99.90;;;;;;5127547;27;20284;-77
2023/07/20 10:20:12;;;;;;;1.70;1.20;;;18.60;99.90;;;;;;5127473;27;20227;-73
2023/07/20 10:22:41;;;;;;;1.33;1.23;;;18.50;99.90;;;;;;5123107;27;20212;-76
2023/07/20 10:25:08;;;;;;;2.27;0.90;;;18.50;99.90;;;;;;5127174;27;20216;-77
2023/07/20 10:27:35;;;;;;;1.03;1.03;;;18.40;99.90;;;;;;5127528;27;20202;-78
2023/07/20 10:30:03;;;;;;;2.80;1.23;;;18.40;99.90;;;;;;5127146;27;20205;-79
2023/07/20 10:32:31;;;;;;;3.07;0.87;;;18.40;99.90;;;;;;5108827;27;20308;-79
2023/07/20 10:34:58;;;;;;;1.00;1.00;;;18.30;99.90;;;;;;5106944;28;20213;-79
2023/07/20 10:37:49;;;;;;;2.10;1.20;;;18.30;99.90;;;;;;5107558;28;20617;-79
2023/07/20 10:40:32;;;;;;;1.50;1.40;;;18.30;99.90;;;;;;5107568;28;20229;-79
2023/07/20 10:43:01;;;;;;;1.07;0.93;;;18.30;99.90;;;;;;5109993;27;20617;-78
2023/07/20 10:45:42;;;;;;;1.00;1.00;;;18.30;99.90;;;;;;5113711;27;20230;-78
2023/07/20 10:48:17;;;;;;;1.07;0.90;;;18.40;99.90;;;;;;5107505;28;20587;-79
2023/07/20 10:50:45;;;;;;;1.20;1.13;;;18.40;99.90;;;;;;5111679;27;20230;-79
2023/07/20 10:53:15;;;;;;;3.20;1.20;;;18.50;99.90;;;;;;5107484;28;20802;-79
2023/07/20 10:55:43;;;;;;;1.00;0.90;;;18.70;99.90;;;;;;5114102;27;20545;-80
2023/07/20 10:58:12;;;;;;;2.70;1.10;;;18.70;99.90;;;;;;5126860;27;20347;-80
2023/07/20 11:00:55;;;;;;;0.70;0.70;;;18.70;99.90;;;;;;5127350;27;20225;-80
2023/07/20 11:03:29;;;;;;;1.63;0.87;;;18.70;99.90;;;;;;5111871;27;20790;-80
2023/07/20 11:05:56;;;;;;;4.57;1.10;;;18.70;99.90;;;;;;5106847;28;20197;-79
2023/07/20 11:08:41;;;;;;;2.63;0.90;;;18.70;99.90;;;;;;5106679;28;20759;-79
2023/07/20 11:11:24;;;;;;;1.27;0.70;;;18.80;99.90;;;;;;5110985;27;20977;-79
2023/07/20 11:13:59;;;;;;;1.20;1.10;;;18.80;99.90;;;;;;5116919;27;20209;-80
2023/07/20 11:16:37;;;;;;;1.40;0.90;;;19.00;99.90;;;;;;5116133;27;20197;-79
2023/07/20 11:19:05;;;;;;;2.00;0.90;;;19.40;99.90;;;;;;5120954;27;20803;-79
2023/07/20 11:21:37;;;;;;;0.83;0.83;;;19.40;99.90;;;;;;5149728;27;20244;-79
2023/07/20 11:24:07;;;;;;;0.90;0.90;;;19.60;99.90;;;;;;5133780;27;20225;-80
2023/07/20 11:26:44;;;;;;;0.63;0.63;;;20.10;99.90;;;;;;5127763;27;20205;-79
2023/07/20 11:29:11;;;;;;;1.37;0.73;;;20.30;99.90;;;;;;5116361;27;20197;-80
2023/07/20 11:31:39;;;;;;;0.70;0.70;;;20.50;99.90;;;;;;5128304;27;20205;-80
2023/07/20 11:34:06;;;;;;;1.80;0.67;;;21.00;99.90;;;;;;5120965;27;20289;-80
2023/07/20 11:36:34;;;;;;;1.60;0.70;;;21.00;99.90;;;;;;5108184;28;20212;-79
2023/07/20 11:39:04;;;;;;;1.10;0.53;;;21.10;99.90;;;;;;5113643;27;20225;-79
2023/07/20 11:41:33;;;;;;;1.20;0.73;;;21.30;99.90;;;;;;5128145;27;20202;-80
2023/07/20 11:44:00;;;;;;;1.27;0.30;;;21.50;99.90;;;;;;5127519;27;20552;-79
2023/07/20 11:46:28;;;;;;;0.50;0.50;;;21.60;99.90;;;;;;5123452;27;20221;-79
2023/07/20 11:48:59;;;;;;;0.40;0.40;;;21.50;99.90;;;;;;5128743;27;20877;-79
2023/07/20 11:51:27;;;;;;;0.50;0.40;;;21.00;99.90;;;;;;5107343;28;20198;-80
2023/07/20 11:53:54;;;;;;;0.63;0.63;;;20.90;99.90;;;;;;5107220;28;20293;-79
2023/07/20 11:56:21;;;;;;;1.10;0.40;;;20.80;99.90;;;;;;5107396;28;20256;-80
2023/07/20 11:58:49;;;;;;;0.20;0.20;;;20.60;99.90;;;;;;5115169;27;20348;-80
2023/07/20 12:01:20;;;;;;;0.67;0.47;;;20.50;99.90;;;;;;5128541;27;20304;-78
2023/07/20 12:03:51;;;;;;;0.43;0.43;;;20.30;99.90;;;;;;5127473;27;20221;-79
2023/07/20 12:06:18;;;;;;;0.43;0.43;;;20.30;99.90;;;;;;5119901;27;20204;-80
2023/07/20 12:08:45;;;;;;;0.50;0.50;;;20.40;99.90;;;;;;5106815;28;20296;-80
2023/07/20 12:11:12;;;;;;;0.50;0.50;;;20.50;99.90;;;;;;5126396;27;20209;-79
2023/07/20 12:13:41;;;;;;;5.30;0.60;;;20.60;99.90;;;;;;5126578;27;20205;-79
2023/07/20 12:16:11;;;;;;;1.97;0.50;;;20.60;99.90;;;;;;5126633;27;20299;-80
2023/07/20 12:18:38;;;;;;;1.33;0.60;;;20.60;99.90;;;;;;5119973;27;20863;-80
2023/07/20 12:21:07;;;;;;;9.03;0.60;;;20.40;99.90;;;;;;5126692;27;20316;-80
2023/07/20 12:23:37;;;;;;;1.03;0.53;;;20.40;99.90;;;;;;5127668;27;20312;-80
2023/07/20 12:26:05;;;;;;;0.20;0.20;;;20.60;99.90;;;;;;5127025;27;20213;-80
2023/07/20 12:28:32;;;;;;;0.40;0.27;;;21.10;99.90;;;;;;5127746;27;20201;-79
2023/07/20 12:30:59;;;;;;;0.65;0.35;;;21.50;99.90;;;;;;5113511;27;20206;-79
2023/07/20 12:33:28;;;;;;;0.32;0.32;;;21.50;99.90;;;;;;5107538;27;20266;-79
2023/07/20 12:35:56;;;;;;;0.98;0.70;;;22.00;99.90;;;;;;5107529;28;20217;-80
2023/07/20 12:38:23;;;;;;;0.68;0.40;;;22.30;99.90;;;;;;5106964;28;20672;-79
2023/07/20 12:40:50;;;;;;;0.65;0.50;;;22.50;99.90;;;;;;5106970;28;20229;-79
2023/07/20 12:43:17;;;;;;;0.65;0.40;;;22.80;99.90;;;;;;5106869;28;20946;-79
2023/07/20 12:45:44;;;;;;;0.63;0.30;;;22.80;98.70;;;;;;5107171;28;20206;-80
2023/07/20 12:48:11;;;;;;;2.25;0.30;;;22.80;97.90;;;;;;5116688;28;20254;-79
2023/07/20 12:50:39;;;;;;;0.52;0.32;;;23.20;97.80;;;;;;5106439;28;20210;-79
2023/07/20 12:53:06;;;;;;;0.43;0.30;;;23.40;96.50;;;;;;5106179;28;20637;-79